Time;durP1;ratioP1;P1;durP2;ratioP2;P2;SDS_P1;SDS_P2;PMS_P1;PMS_P2;Temp;Humidity;BMP_temperature;BMP_pressure;BME280_temperature;BME280_humidity;BME280_pressure;Samples;Min_cycle;Max_cycle;Signal;HPM_P1;HPM_P2
2022/12/01 07:15:27;;;;;;;28.05;17.52;;;;;;;-0.15;80.22;101354.69;30957129;28;96421;-67
2022/12/01 07:30:27;;;;;;;34.85;18.30;;;;;;;0.13;80.20;101361.22;30830591;28;97258;-64
2022/12/01 07:45:28;;;;;;;41.53;21.20;;;;;;;0.51;80.24;101371.59;30808882;28;98124;-64
2022/12/01 08:00:28;;;;;;;41.42;21.90;;;;;;;0.75;79.68;101373.91;30832836;28;96737;-64
2022/12/01 08:15:29;;;;;;;44.92;20.48;;;;;;;1.14;79.46;101372.81;30786203;28;96868;-67
2022/12/01 08:30:29;;;;;;;33.30;17.75;;;;;;;1.23;79.32;101369.69;30652216;28;96885;-62
2022/12/01 08:45:30;;;;;;;36.20;18.92;;;;;;;1.38;78.88;101364.53;30630126;28;96604;-64
2022/12/01 09:00:31;;;;;;;36.53;17.70;;;;;;;1.54;78.67;101365.41;30676116;28;97671;-66
2022/12/01 09:15:31;;;;;;;37.08;18.05;;;;;;;1.67;78.77;101374.34;30741642;28;97323;-67
2022/12/01 09:30:33;;;;;;;31.10;18.90;;;;;;;1.72;78.32;101373.22;30711194;28;97216;-69
2022/12/01 09:45:38;;;;;;;32.53;17.67;;;;;;;1.80;78.22;101352.66;30742472;28;96737;-66
2022/12/01 10:00:42;;;;;;;35.20;18.58;;;;;;;1.89;77.80;101341.63;30719471;28;96557;-64
2022/12/01 10:15:49;;;;;;;34.73;18.70;;;;;;;2.09;77.55;101342.28;30727305;28;97200;-68
2022/12/01 10:30:52;;;;;;;32.40;18.52;;;;;;;2.09;77.14;101326.50;30622385;28;96653;-67
2022/12/01 10:45:53;;;;;;;39.53;18.30;;;;;;;2.16;77.03;101312.94;30608201;28;97359;-62
2022/12/01 11:01:01;;;;;;;34.40;17.23;;;;;;;2.29;76.64;101301.69;30608927;28;97419;-63
2022/12/01 11:16:04;;;;;;;31.90;15.98;;;;;;;2.26;76.74;101294.84;30608046;28;96800;-66
2022/12/01 11:31:07;;;;;;;29.40;15.33;;;;;;;2.36;76.42;101290.75;30639337;28;97048;-66
2022/12/01 11:46:08;;;;;;;27.02;13.57;;;;;;;2.49;76.14;101295.28;30627167;28;97328;-67
2022/12/01 12:01:38;;;;;;;23.48;13.63;;;;;;;2.56;76.24;101295.75;30620493;28;96693;-71
2022/12/01 12:17:03;;;;;;;25.00;14.95;;;;;;;2.50;75.77;101283.81;30621607;28;97494;-68
2022/12/01 12:32:27;;;;;;;26.38;14.80;;;;;;;2.47;75.14;101282.19;30621461;28;97461;-65
2022/12/01 12:47:46;;;;;;;21.83;13.13;;;;;;;2.37;75.46;101283.69;30637704;28;97101;-66
2022/12/01 13:03:24;;;;;;;22.08;12.63;;;;;;;2.29;75.00;101293.81;30629620;28;97276;-68
2022/12/01 13:18:33;;;;;;;25.27;13.45;;;;;;;2.22;74.54;101295.13;30781787;28;96856;-66
2022/12/01 13:33:36;;;;;;;28.75;12.25;;;;;;;2.12;74.48;101298.28;30814985;28;98403;-65
2022/12/01 13:48:36;;;;;;;28.05;13.38;;;;;;;2.07;74.44;101307.34;30816394;28;97071;-65
2022/12/01 14:03:39;;;;;;;28.20;13.15;;;;;;;1.96;74.59;101300.91;30785920;28;96738;-63
2022/12/01 14:18:47;;;;;;;20.33;12.13;;;;;;;1.83;74.26;101299.91;30788783;28;97235;-66
2022/12/01 14:34:08;;;;;;;24.60;13.45;;;;;;;1.77;74.42;101302.91;30843886;28;97314;-65
2022/12/01 14:49:17;;;;;;;22.92;13.23;;;;;;;1.79;74.05;101303.66;30849883;28;97054;-65
2022/12/01 15:04:18;;;;;;;25.48;12.25;;;;;;;1.80;74.25;101294.84;30849586;28;96671;-64
2022/12/01 15:19:36;;;;;;;27.08;15.52;;;;;;;1.83;74.17;101289.41;30846221;28;97264;-66
2022/12/01 15:34:40;;;;;;;22.55;13.65;;;;;;;1.87;74.36;101275.16;30748184;28;97362;-66
2022/12/01 15:49:48;;;;;;;22.03;11.77;;;;;;;1.90;73.96;101271.50;30746966;28;96687;-66
2022/12/01 16:04:59;;;;;;;19.45;11.82;;;;;;;1.82;74.04;101275.44;30745029;28;96723;-65
2022/12/01 16:20:24;;;;;;;20.73;12.18;;;;;;;1.83;73.95;101279.75;30743353;28;96714;-68
2022/12/01 16:35:29;;;;;;;24.20;13.40;;;;;;;1.82;74.20;101285.09;30732897;28;98338;-70
2022/12/01 16:50:29;;;;;;;32.00;14.75;;;;;;;1.88;73.70;101286.53;30736715;28;96836;-68
2022/12/01 17:05:30;;;;;;;29.45;13.77;;;;;;;1.85;73.92;101282.28;30739105;28;96644;-65
2022/12/01 17:20:30;;;;;;;26.23;14.63;;;;;;;1.98;74.37;101278.03;30738664;28;97374;-66
2022/12/01 17:35:31;;;;;;;24.17;12.68;;;;;;;2.05;73.79;101277.66;30736257;28;96757;-65
2022/12/01 17:50:31;;;;;;;16.60;10.75;;;;;;;2.05;73.62;101269.78;30729636;28;96698;-68
2022/12/01 18:05:31;;;;;;;14.68;8.38;;;;;;;1.96;72.66;101265.91;30731620;28;96629;-68
2022/12/01 18:20:32;;;;;;;16.55;9.63;;;;;;;1.90;72.73;101280.25;30730084;28;97723;-68
2022/12/01 18:35:32;;;;;;;13.77;8.23;;;;;;;1.83;72.85;101284.16;30725308;28;97056;-69
2022/12/01 18:50:33;;;;;;;11.27;7.72;;;;;;;1.76;72.49;101283.66;30723716;28;96786;-67
2022/12/01 19:05:40;;;;;;;15.85;7.80;;;;;;;1.77;72.31;101279.25;30719644;28;97414;-70
2022/12/01 19:20:40;;;;;;;13.32;7.65;;;;;;;1.71;71.90;101269.06;30719493;28;96944;-69
2022/12/01 19:35:40;;;;;;;12.63;7.28;;;;;;;1.65;72.04;101270.28;30717764;28;96749;-68
2022/12/01 19:50:41;;;;;;;11.15;7.35;;;;;;;1.58;71.39;101267.13;30718223;28;96762;-69
2022/12/01 20:05:41;;;;;;;17.35;10.10;;;;;;;1.58;71.48;101272.38;30716943;28;97167;-69
2022/12/01 20:20:42;;;;;;;13.02;8.20;;;;;;;1.56;71.35;101270.78;30732478;28;96960;-69
2022/12/01 20:35:42;;;;;;;13.55;9.13;;;;;;;1.53;71.70;101271.78;30683836;28;98382;-69
2022/12/01 20:50:43;;;;;;;12.93;8.48;;;;;;;1.43;71.22;101265.38;30604827;28;97487;-68
2022/12/01 21:05:43;;;;;;;10.43;7.30;;;;;;;1.40;70.88;101255.88;30602465;28;96947;-68
2022/12/01 21:20:45;;;;;;;13.52;8.50;;;;;;;1.38;71.20;101255.13;30686092;28;97623;-70
2022/12/01 21:35:48;;;;;;;13.85;8.63;;;;;;;1.31;71.42;101251.13;30800209;28;97513;-68
2022/12/01 21:50:59;;;;;;;13.35;9.27;;;;;;;1.29;71.16;101259.09;30720429;28;97049;-68
2022/12/01 22:06:23;;;;;;;15.40;9.25;;;;;;;1.30;71.57;101252.91;30698198;28;98152;-68
2022/12/01 22:21:48;;;;;;;12.33;8.20;;;;;;;1.25;70.93;101244.44;30741713;28;96546;-68
2022/12/01 22:36:57;;;;;;;18.27;10.70;;;;;;;1.18;71.09;101241.31;30855187;28;96911;-68
2022/12/01 22:52:04;;;;;;;16.33;9.35;;;;;;;1.12;71.47;101240.78;30856565;28;97301;-70
2022/12/01 23:07:08;;;;;;;20.85;11.65;;;;;;;1.08;70.97;101224.38;30855127;28;96922;-70
2022/12/01 23:22:09;;;;;;;20.20;11.13;;;;;;;1.01;71.06;101215.13;30854554;28;97097;-70
2022/12/01 23:37:29;;;;;;;19.02;10.77;;;;;;;0.96;71.24;101215.38;30854110;28;97358;-70
2022/12/01 23:52:34;;;;;;;18.95;10.32;;;;;;;0.88;71.47;101201.84;30864949;28;96571;-70
